createdAt,value
2022-11-17T00:00:18.768Z,4.90
2022-11-17T00:02:45.893Z,4.60
2022-11-17T00:05:13.046Z,4.05
2022-11-17T00:07:40.112Z,5.57
2022-11-17T00:10:07.189Z,4.00
2022-11-17T00:12:53.223Z,5.47
2022-11-17T00:15:20.302Z,3.88
2022-11-17T00:17:48.346Z,4.35
2022-11-17T00:20:34.245Z,4.65
2022-11-17T00:23:01.293Z,3.90
2022-11-17T00:25:28.342Z,4.45
2022-11-17T00:27:55.467Z,4.13
2022-11-17T00:30:43.801Z,7.30
2022-11-17T00:33:30.057Z,4.50
2022-11-17T00:35:57.114Z,3.65
2022-11-17T00:38:24.194Z,3.72
2022-11-17T00:40:51.299Z,4.47
2022-11-17T00:43:18.382Z,4.43
2022-11-17T00:45:45.449Z,4.10
2022-11-17T00:48:12.583Z,4.38
2022-11-17T00:50:39.650Z,3.95
2022-11-17T00:53:06.720Z,3.17
2022-11-17T00:55:33.837Z,4.10
2022-11-17T00:58:01.013Z,3.50
2022-11-17T01:00:28.079Z,4.30
2022-11-17T01:02:55.166Z,4.00
2022-11-17T01:05:22.234Z,4.53
2022-11-17T01:07:49.319Z,3.33
2022-11-17T01:10:16.446Z,3.78
2022-11-17T01:12:43.502Z,4.57
2022-11-17T01:15:10.604Z,4.38
2022-11-17T01:17:37.703Z,3.58
2022-11-17T01:20:04.802Z,3.90
2022-11-17T01:22:31.873Z,4.28
2022-11-17T01:24:58.943Z,4.15
2022-11-17T01:27:26.022Z,4.38
2022-11-17T01:29:53.115Z,4.43
2022-11-17T01:32:20.424Z,3.70
2022-11-17T01:34:47.491Z,3.72
2022-11-17T01:37:20.867Z,3.72
2022-11-17T01:39:47.969Z,4.15
2022-11-17T01:42:15.118Z,3.95
2022-11-17T01:44:44.459Z,3.60
2022-11-17T01:47:11.519Z,3.35
2022-11-17T01:49:38.600Z,3.95
2022-11-17T01:52:05.678Z,4.03
2022-11-17T01:54:32.749Z,3.33
2022-11-17T01:56:59.801Z,3.53
2022-11-17T01:59:26.879Z,3.53
2022-11-17T02:01:57.070Z,4.03
2022-11-17T02:04:24.202Z,3.73
2022-11-17T02:06:51.381Z,3.88
2022-11-17T02:09:18.458Z,4.53
2022-11-17T02:11:45.522Z,3.40
2022-11-17T02:14:12.645Z,4.15
2022-11-17T02:16:39.712Z,3.40
2022-11-17T02:19:06.817Z,3.55
2022-11-17T02:21:34.076Z,4.20
2022-11-17T02:24:01.188Z,3.45
2022-11-17T02:26:28.251Z,3.78
2022-11-17T02:28:55.334Z,4.47
2022-11-17T02:31:22.411Z,3.92
2022-11-17T02:33:49.460Z,3.83
2022-11-17T02:36:16.539Z,2.90
2022-11-17T02:38:43.618Z,3.88
2022-11-17T02:41:10.721Z,3.50
2022-11-17T02:43:56.684Z,4.05
2022-11-17T02:46:23.833Z,3.95
2022-11-17T02:48:50.893Z,3.35
2022-11-17T02:51:17.966Z,3.13
2022-11-17T02:53:45.090Z,3.17
2022-11-17T02:56:12.169Z,4.00
2022-11-17T02:58:39.228Z,3.90
2022-11-17T03:01:06.298Z,4.45
2022-11-17T03:03:33.785Z,3.47
2022-11-17T03:06:01.073Z,4.40
2022-11-17T03:08:32.736Z,2.97
2022-11-17T03:11:00.285Z,3.45
2022-11-17T03:13:27.418Z,3.30
2022-11-17T03:15:55.119Z,3.67
2022-11-17T03:18:22.215Z,3.50
2022-11-17T03:20:49.339Z,3.72
2022-11-17T03:23:16.417Z,3.50
2022-11-17T03:25:43.521Z,3.50
2022-11-17T03:28:10.594Z,3.33
2022-11-17T03:30:37.822Z,3.05
2022-11-17T03:33:05.348Z,3.45
2022-11-17T03:35:32.456Z,5.50
2022-11-17T03:37:59.547Z,3.22
2022-11-17T03:40:26.686Z,3.20
2022-11-17T03:42:54.045Z,3.90
2022-11-17T03:45:21.125Z,4.38
2022-11-17T03:47:48.281Z,3.05
2022-11-17T03:50:15.388Z,3.70
2022-11-17T03:52:42.443Z,3.47
2022-11-17T03:55:09.554Z,3.35
2022-11-17T03:57:36.636Z,4.05
2022-11-17T04:00:03.997Z,3.47
2022-11-17T04:02:31.082Z,3.50
2022-11-17T04:05:07.535Z,3.90
2022-11-17T04:07:34.763Z,3.50
2022-11-17T04:10:01.862Z,2.53
2022-11-17T04:12:47.997Z,2.97
2022-11-17T04:18:00.592Z,3.13
2022-11-17T04:20:35.836Z,3.70
2022-11-17T04:23:09.188Z,2.83
2022-11-17T04:25:54.954Z,3.47
2022-11-17T04:28:37.352Z,4.43
2022-11-17T04:31:04.469Z,3.67
2022-11-17T04:33:31.516Z,3.58
2022-11-17T04:35:58.590Z,3.10
2022-11-17T04:38:25.654Z,3.35
2022-11-17T04:41:11.613Z,3.65
2022-11-17T04:43:41.477Z,3.55
2022-11-17T04:46:08.586Z,4.63
2022-11-17T04:48:35.654Z,3.67
2022-11-17T04:51:02.737Z,4.05
2022-11-17T04:53:29.802Z,5.05
2022-11-17T04:55:56.892Z,3.25
2022-11-17T04:58:23.957Z,3.38
2022-11-17T05:00:51.037Z,3.03
2022-11-17T05:03:18.155Z,3.58
2022-11-17T05:05:45.375Z,3.70
2022-11-17T05:08:12.521Z,3.50
2022-11-17T05:10:58.384Z,3.72
2022-11-17T05:13:26.168Z,3.60
2022-11-17T05:16:11.899Z,3.05
2022-11-17T05:18:38.968Z,3.97
2022-11-17T05:21:06.118Z,2.65
2022-11-17T05:23:52.043Z,3.65
2022-11-17T05:26:19.104Z,5.82
2022-11-17T05:28:46.190Z,2.95
2022-11-17T05:31:13.286Z,3.38
2022-11-17T05:33:40.746Z,2.92
2022-11-17T05:36:07.993Z,3.35
2022-11-17T05:38:35.049Z,3.78
2022-11-17T05:41:02.116Z,3.00
2022-11-17T05:43:29.216Z,3.58
2022-11-17T05:45:56.287Z,3.47
2022-11-17T05:48:23.384Z,3.42
2022-11-17T05:50:51.286Z,3.08
2022-11-17T05:53:18.355Z,3.15
2022-11-17T05:55:45.426Z,2.92
2022-11-17T05:58:12.531Z,2.75
2022-11-17T06:00:39.603Z,2.85
2022-11-17T06:03:06.708Z,2.67
2022-11-17T06:05:33.792Z,2.75
2022-11-17T06:08:00.863Z,2.85
2022-11-17T06:10:27.932Z,3.08
2022-11-17T06:12:54.998Z,3.42
2022-11-17T06:15:22.053Z,3.13
2022-11-17T06:17:49.121Z,2.63
2022-11-17T06:20:16.180Z,3.70
2022-11-17T06:22:48.171Z,2.92
2022-11-17T06:25:15.710Z,3.03
2022-11-17T06:27:42.785Z,2.97
2022-11-17T06:30:10.132Z,3.25
2022-11-17T06:32:37.202Z,2.88
2022-11-17T06:35:04.291Z,3.05
2022-11-17T06:37:31.368Z,3.03
2022-11-17T06:39:58.469Z,3.30
2022-11-17T06:42:44.118Z,2.70
2022-11-17T06:45:11.189Z,2.92
2022-11-17T06:47:38.249Z,2.80
2022-11-17T06:50:05.298Z,3.08
2022-11-17T06:52:32.922Z,2.75
2022-11-17T06:55:00.033Z,3.05
2022-11-17T06:57:27.171Z,2.92
2022-11-17T06:59:54.383Z,2.92
2022-11-17T07:02:21.523Z,2.72
2022-11-17T07:04:48.679Z,2.78
2022-11-17T07:07:15.856Z,3.05
2022-11-17T07:09:43.134Z,4.15
2022-11-17T07:12:10.236Z,2.47
2022-11-17T07:14:37.393Z,3.13
2022-11-17T07:17:04.500Z,2.78
2022-11-17T07:19:31.632Z,3.10
2022-11-17T07:21:58.755Z,2.47
2022-11-17T07:24:25.911Z,3.08
2022-11-17T07:26:53.067Z,3.10
2022-11-17T07:29:20.316Z,2.75
2022-11-17T07:31:47.420Z,2.78
2022-11-17T07:34:14.521Z,3.58
2022-11-17T07:36:41.666Z,2.80
2022-11-17T07:39:08.899Z,2.60
2022-11-17T07:41:36.054Z,3.00
2022-11-17T07:44:03.223Z,2.88
2022-11-17T07:46:30.319Z,2.72
2022-11-17T07:48:57.417Z,3.40
2022-11-17T07:51:24.751Z,2.80
2022-11-17T07:53:51.912Z,4.40
2022-11-17T07:56:19.064Z,2.50
2022-11-17T07:58:46.247Z,2.88
2022-11-17T08:01:15.542Z,2.72
2022-11-17T08:03:42.881Z,3.08
2022-11-17T08:06:10.239Z,2.75
2022-11-17T08:08:38.320Z,3.03
2022-11-17T08:11:06.117Z,2.88
2022-11-17T08:13:33.280Z,2.63
2022-11-17T08:16:00.400Z,2.35
2022-11-17T08:18:27.539Z,2.58
2022-11-17T08:20:54.644Z,2.20
2022-11-17T08:23:21.863Z,2.63
2022-11-17T08:25:49.152Z,3.65
2022-11-17T08:28:16.315Z,3.20
2022-11-17T08:30:44.442Z,2.72
2022-11-17T08:33:11.593Z,3.70
2022-11-17T08:35:38.935Z,2.80
2022-11-17T08:38:06.097Z,2.67
2022-11-17T08:40:33.196Z,2.55
2022-11-17T08:43:01.540Z,2.95
2022-11-17T08:45:28.955Z,3.00
2022-11-17T08:47:56.118Z,3.30
2022-11-17T08:50:23.263Z,3.65
2022-11-17T08:52:50.425Z,2.60
2022-11-17T08:55:17.640Z,2.20
2022-11-17T08:57:44.930Z,2.95
2022-11-17T09:00:12.111Z,8.38
2022-11-17T09:02:39.352Z,4.00
2022-11-17T09:05:06.521Z,3.33
2022-11-17T09:07:35.056Z,2.63
2022-11-17T09:10:02.260Z,3.20
2022-11-17T09:12:29.401Z,3.15
2022-11-17T09:14:56.474Z,2.45
2022-11-17T09:17:23.587Z,2.55
2022-11-17T09:19:50.677Z,2.45
2022-11-17T09:22:17.752Z,5.22
2022-11-17T09:24:44.877Z,2.70
2022-11-17T09:27:12.115Z,2.97
2022-11-17T09:29:39.253Z,3.25
2022-11-17T09:32:06.423Z,2.33
2022-11-17T09:34:33.600Z,3.42
2022-11-17T09:37:00.733Z,4.30
2022-11-17T09:39:27.887Z,2.67
2022-11-17T09:41:55.035Z,2.53
2022-11-17T09:44:22.191Z,5.35
2022-11-17T09:46:49.273Z,3.58
2022-11-17T09:49:16.431Z,7.20
2022-11-17T09:51:43.556Z,2.42
2022-11-17T09:54:10.688Z,2.67
2022-11-17T09:56:37.807Z,4.13
2022-11-17T09:59:05.246Z,3.95
2022-11-17T10:01:32.375Z,2.55
2022-11-17T10:04:01.359Z,3.92
2022-11-17T10:06:28.880Z,3.47
2022-11-17T10:08:58.316Z,2.40
2022-11-17T10:11:35.318Z,3.65
2022-11-17T10:14:03.120Z,2.70
2022-11-17T10:16:30.227Z,2.72
2022-11-17T10:18:57.407Z,3.45
2022-11-17T10:21:25.371Z,4.45
2022-11-17T10:23:52.505Z,5.95
2022-11-17T10:26:19.600Z,4.07
2022-11-17T10:28:48.487Z,2.60
2022-11-17T10:31:15.619Z,2.65
2022-11-17T10:33:43.594Z,3.63
2022-11-17T10:36:10.673Z,2.50
2022-11-17T10:38:37.749Z,2.70
2022-11-17T10:41:04.989Z,2.75
2022-11-17T10:43:32.737Z,2.47
2022-11-17T10:45:59.947Z,2.38
2022-11-17T10:48:27.136Z,2.67
2022-11-17T10:50:54.347Z,2.65
2022-11-17T10:53:21.469Z,3.63
2022-11-17T10:55:48.547Z,3.95
2022-11-17T10:58:15.664Z,2.33
2022-11-17T11:00:42.826Z,3.13
2022-11-17T11:03:09.923Z,2.50
2022-11-17T11:05:37.042Z,3.17
2022-11-17T11:08:04.133Z,2.72
2022-11-17T11:10:31.343Z,4.20
2022-11-17T11:12:59.294Z,3.03
2022-11-17T11:15:26.381Z,2.78
2022-11-17T11:17:53.463Z,3.40
2022-11-17T11:20:20.571Z,4.68
2022-11-17T11:22:47.653Z,3.80
2022-11-17T11:25:14.766Z,3.10
2022-11-17T11:27:41.846Z,3.00
2022-11-17T11:30:08.952Z,3.95
2022-11-17T11:32:37.025Z,4.68
2022-11-17T11:35:04.138Z,2.60
2022-11-17T11:37:31.301Z,2.60
2022-11-17T11:39:58.955Z,3.70
2022-11-17T11:42:26.087Z,2.95
2022-11-17T11:44:53.278Z,5.72
2022-11-17T11:47:20.409Z,5.30
2022-11-17T11:49:47.520Z,3.30
2022-11-17T11:52:14.645Z,4.00
2022-11-17T11:54:44.990Z,2.78
2022-11-17T11:57:16.473Z,2.47
2022-11-17T11:59:48.198Z,3.95
2022-11-17T12:02:15.397Z,4.97
2022-11-17T12:04:42.539Z,7.80
2022-11-17T12:07:11.267Z,3.35
2022-11-17T12:09:38.472Z,2.60
2022-11-17T12:12:05.595Z,5.43
2022-11-17T12:14:32.733Z,2.80
2022-11-17T12:16:59.870Z,2.83
2022-11-17T12:19:26.990Z,6.18
2022-11-17T12:21:54.115Z,4.05
2022-11-17T12:24:21.216Z,4.70
2022-11-17T12:26:48.327Z,7.03
2022-11-17T12:29:15.396Z,7.38
2022-11-17T12:31:42.467Z,4.97
2022-11-17T12:34:09.956Z,3.05
2022-11-17T12:36:37.545Z,3.58
2022-11-17T12:39:04.655Z,4.03
2022-11-17T12:41:31.774Z,4.90
2022-11-17T12:43:58.864Z,3.25
2022-11-17T12:46:26.659Z,3.55
2022-11-17T12:48:53.838Z,3.50
2022-11-17T12:51:21.002Z,6.88
2022-11-17T12:53:48.240Z,3.15
2022-11-17T12:56:15.345Z,2.92
2022-11-17T12:58:42.458Z,3.50
2022-11-17T13:01:09.752Z,4.15
2022-11-17T13:03:36.997Z,6.43
2022-11-17T13:06:28.297Z,2.67
2022-11-17T13:08:51.212Z,3.83
2022-11-17T13:11:18.303Z,5.07
2022-11-17T13:13:47.326Z,5.00
2022-11-17T13:16:14.621Z,2.63
2022-11-17T13:18:41.781Z,3.75
2022-11-17T13:21:08.860Z,7.85
2022-11-17T13:23:35.971Z,16.08
2022-11-17T13:26:03.098Z,9.25
2022-11-17T13:28:30.268Z,18.38
2022-11-17T13:30:57.443Z,15.52
2022-11-17T13:33:24.599Z,25.30
2022-11-17T13:35:51.770Z,33.05
2022-11-17T13:38:18.848Z,36.67
2022-11-17T13:40:46.146Z,34.50
2022-11-17T13:43:13.266Z,49.35
2022-11-17T13:45:40.692Z,28.05
2022-11-17T13:48:07.775Z,17.95
2022-11-17T13:50:34.915Z,28.52
2022-11-17T13:53:02.050Z,22.73
2022-11-17T13:55:29.215Z,39.47
2022-11-17T13:57:56.413Z,42.15
2022-11-17T14:00:23.554Z,20.90
2022-11-17T14:02:50.655Z,47.30
2022-11-17T14:05:18.507Z,49.85
2022-11-17T14:07:46.001Z,41.90
2022-11-17T14:10:13.378Z,35.53
2022-11-17T14:12:40.560Z,32.88
2022-11-17T14:15:07.655Z,25.20
2022-11-17T14:17:34.734Z,26.80
2022-11-17T14:20:01.813Z,17.23
2022-11-17T14:22:31.754Z,37.88
2022-11-17T14:24:59.095Z,31.08
2022-11-17T14:27:26.167Z,29.85
2022-11-17T14:29:53.267Z,25.85
2022-11-17T14:32:20.347Z,22.67
2022-11-17T14:34:47.487Z,21.88
2022-11-17T14:37:14.579Z,26.55
2022-11-17T14:39:41.659Z,17.67
2022-11-17T14:42:08.799Z,20.88
2022-11-17T14:44:35.939Z,19.25
2022-11-17T14:47:03.368Z,19.40
2022-11-17T14:49:30.495Z,14.50
2022-11-17T14:51:59.262Z,27.42
2022-11-17T14:54:26.436Z,17.92
2022-11-17T14:56:53.606Z,18.75
2022-11-17T14:59:20.776Z,14.85
2022-11-17T15:01:47.882Z,11.00
2022-11-17T15:04:43.369Z,15.13
2022-11-17T15:07:03.423Z,13.98
2022-11-17T15:09:30.880Z,13.45
2022-11-17T15:11:58.017Z,17.52
2022-11-17T15:14:25.144Z,16.90
2022-11-17T15:16:52.270Z,9.95
2022-11-17T15:19:19.410Z,15.48
2022-11-17T15:21:46.584Z,12.95
2022-11-17T15:24:14.191Z,9.05
2022-11-17T15:26:41.459Z,18.10
2022-11-17T15:29:09.486Z,8.80
2022-11-17T15:31:36.785Z,26.90
2022-11-17T15:34:03.986Z,10.35
2022-11-17T15:36:31.945Z,10.23
2022-11-17T15:38:59.101Z,10.38
2022-11-17T15:41:31.336Z,11.63
2022-11-17T15:43:59.789Z,15.55
2022-11-17T15:46:26.977Z,13.18
2022-11-17T15:48:54.157Z,22.95
2022-11-17T15:51:21.323Z,16.30
2022-11-17T15:53:48.415Z,7.22
2022-11-17T15:56:15.550Z,6.68
2022-11-17T15:58:42.750Z,11.10
2022-11-17T16:01:10.077Z,12.65
2022-11-17T16:03:37.314Z,17.88
2022-11-17T16:06:04.502Z,5.43
2022-11-17T16:08:31.662Z,5.68
2022-11-17T16:10:58.918Z,9.32
2022-11-17T16:13:26.205Z,12.63
2022-11-17T16:15:53.327Z,16.08
2022-11-17T16:18:20.597Z,8.85
2022-11-17T16:20:48.189Z,21.65
2022-11-17T16:23:15.735Z,10.57
2022-11-17T16:25:42.849Z,8.05
2022-11-17T16:28:10.015Z,12.90
2022-11-17T16:30:37.344Z,8.10
2022-11-17T16:33:04.447Z,8.73
2022-11-17T16:35:31.590Z,7.15
2022-11-17T16:37:58.680Z,7.65
2022-11-17T16:40:25.836Z,6.43
2022-11-17T16:42:52.975Z,9.35
2022-11-17T16:45:20.146Z,9.68
2022-11-17T16:47:47.281Z,7.60
2022-11-17T16:50:14.414Z,6.40
2022-11-17T16:52:41.534Z,7.07
2022-11-17T16:55:08.653Z,5.68
2022-11-17T16:57:35.848Z,5.68
2022-11-17T17:00:03.008Z,9.32
2022-11-17T17:02:30.274Z,5.32
2022-11-17T17:04:57.706Z,7.28
2022-11-17T17:07:24.909Z,7.95
2022-11-17T17:09:52.570Z,8.20
2022-11-17T17:12:19.671Z,7.35
2022-11-17T17:14:46.740Z,6.32
2022-11-17T17:17:13.820Z,4.15
2022-11-17T17:19:40.972Z,6.88
2022-11-17T17:22:08.166Z,3.47
2022-11-17T17:24:35.314Z,10.32
2022-11-17T17:27:02.395Z,7.55
2022-11-17T17:29:29.555Z,3.40
2022-11-17T17:31:56.664Z,5.85
2022-11-17T17:34:24.056Z,7.85
2022-11-17T17:36:51.160Z,8.40
2022-11-17T17:39:18.479Z,7.95
2022-11-17T17:41:46.065Z,5.50
2022-11-17T17:44:13.313Z,5.63
2022-11-17T17:46:40.404Z,3.80
2022-11-17T17:49:07.627Z,6.78
2022-11-17T17:51:34.784Z,8.43
2022-11-17T17:54:02.118Z,4.15
2022-11-17T17:56:30.712Z,5.05
2022-11-17T17:58:57.916Z,4.90
2022-11-17T18:01:25.053Z,6.97
2022-11-17T18:03:53.782Z,7.53
2022-11-17T18:06:21.205Z,3.53
2022-11-17T18:08:48.276Z,7.97
2022-11-17T18:11:16.932Z,8.57
2022-11-17T18:13:44.054Z,2.85
2022-11-17T18:16:11.131Z,5.93
2022-11-17T18:18:38.299Z,4.55
2022-11-17T18:21:05.448Z,7.45
2022-11-17T18:23:34.340Z,5.78
2022-11-17T18:26:01.448Z,5.72
2022-11-17T18:28:28.588Z,5.83
2022-11-17T18:30:55.716Z,4.50
2022-11-17T18:33:22.869Z,7.82
2022-11-17T18:35:50.045Z,5.15
2022-11-17T18:38:17.182Z,5.43
2022-11-17T18:40:44.293Z,7.82
2022-11-17T18:43:11.381Z,4.80
2022-11-17T18:45:38.579Z,5.85
2022-11-17T18:48:05.711Z,4.38
2022-11-17T18:50:32.809Z,4.32
2022-11-17T18:52:59.926Z,9.10
2022-11-17T18:55:27.214Z,4.90
2022-11-17T18:57:54.326Z,5.82
2022-11-17T19:00:21.484Z,4.40
2022-11-17T19:02:48.674Z,4.57
2022-11-17T19:05:15.844Z,2.92
2022-11-17T19:07:43.035Z,4.28
2022-11-17T19:10:10.265Z,5.97
2022-11-17T19:12:37.497Z,3.35
2022-11-17T19:15:04.587Z,4.65
2022-11-17T19:17:31.699Z,5.32
2022-11-17T19:19:59.600Z,3.15
2022-11-17T19:22:26.731Z,4.00
2022-11-17T19:24:53.871Z,4.57
2022-11-17T19:27:21.031Z,5.05
2022-11-17T19:29:48.183Z,2.67
2022-11-17T19:32:15.289Z,3.67
2022-11-17T19:34:42.674Z,3.58
2022-11-17T19:37:09.964Z,6.95
2022-11-17T19:39:37.238Z,7.05
2022-11-17T19:42:04.651Z,4.03
2022-11-17T19:44:31.983Z,4.63
2022-11-17T19:46:59.320Z,3.45
2022-11-17T19:49:26.612Z,4.25
2022-11-17T19:51:53.904Z,4.63
2022-11-17T19:54:21.364Z,3.50
2022-11-17T19:56:48.628Z,3.65
2022-11-17T19:59:16.791Z,5.30
2022-11-17T20:01:44.811Z,3.75
2022-11-17T20:04:12.370Z,4.35
2022-11-17T20:06:39.663Z,2.75
2022-11-17T20:09:07.663Z,4.88
2022-11-17T20:11:35.481Z,3.70
2022-11-17T20:14:03.043Z,3.92
2022-11-17T20:16:33.472Z,2.20
2022-11-17T20:19:00.880Z,3.70
2022-11-17T20:21:28.018Z,2.58
2022-11-17T20:23:55.183Z,3.60
2022-11-17T20:26:22.554Z,4.75
2022-11-17T20:28:49.980Z,3.30
2022-11-17T20:31:17.206Z,3.97
2022-11-17T20:33:44.510Z,2.88
2022-11-17T20:36:11.835Z,4.68
2022-11-17T20:38:39.131Z,5.53
2022-11-17T20:41:06.435Z,2.67
2022-11-17T20:43:33.742Z,3.83
2022-11-17T20:46:00.909Z,3.35
2022-11-17T20:48:29.200Z,5.20
2022-11-17T20:50:56.567Z,4.88
2022-11-17T20:53:23.690Z,3.20
2022-11-17T20:55:50.840Z,5.70
2022-11-17T20:58:18.031Z,3.03
2022-11-17T21:00:45.270Z,3.83
2022-11-17T21:03:12.524Z,4.35
2022-11-17T21:05:40.051Z,5.47
2022-11-17T21:08:07.395Z,4.60
2022-11-17T21:10:34.810Z,6.00
2022-11-17T21:13:01.997Z,8.68
2022-11-17T21:15:29.125Z,5.68
2022-11-17T21:18:15.153Z,3.25
2022-11-17T21:23:12.121Z,6.63
2022-11-17T21:25:39.255Z,6.20
2022-11-17T21:28:06.375Z,5.15
2022-11-17T21:30:33.966Z,3.53
2022-11-17T21:33:06.333Z,4.63
2022-11-17T21:35:33.404Z,7.32
2022-11-17T21:38:00.681Z,3.55
2022-11-17T21:40:27.842Z,5.32
2022-11-17T21:42:54.971Z,4.22
2022-11-17T21:45:22.095Z,6.03
2022-11-17T21:47:49.247Z,2.50
2022-11-17T21:50:16.372Z,4.25
2022-11-17T21:52:43.446Z,3.78
2022-11-17T21:55:10.747Z,3.85
2022-11-17T21:57:37.852Z,2.80
2022-11-17T22:00:05.922Z,3.67
2022-11-17T22:02:33.079Z,4.22
2022-11-17T22:05:00.217Z,2.88
2022-11-17T22:07:27.426Z,3.45
2022-11-17T22:09:55.047Z,4.07
2022-11-17T22:12:22.160Z,4.28
2022-11-17T22:14:49.235Z,3.85
2022-11-17T22:17:16.360Z,4.25
2022-11-17T22:19:43.460Z,7.07
2022-11-17T22:22:10.547Z,5.90
2022-11-17T22:24:39.634Z,3.88
2022-11-17T22:27:07.129Z,4.55
2022-11-17T22:29:34.246Z,3.20
2022-11-17T22:32:01.352Z,3.47
2022-11-17T22:34:29.228Z,4.28
2022-11-17T22:36:56.392Z,3.55
2022-11-17T22:39:23.511Z,3.65
2022-11-17T22:41:50.644Z,3.85
2022-11-17T22:44:17.856Z,2.78
2022-11-17T22:46:45.784Z,3.15
2022-11-17T22:49:12.968Z,4.43
2022-11-17T22:51:59.115Z,3.00
2022-11-17T22:56:53.217Z,3.20
2022-11-17T22:59:21.122Z,2.97
2022-11-17T23:01:48.221Z,3.70
2022-11-17T23:04:16.475Z,2.80
2022-11-17T23:06:43.608Z,4.13
2022-11-17T23:09:10.719Z,6.32
2022-11-17T23:11:38.462Z,3.92
2022-11-17T23:14:05.730Z,4.85
2022-11-17T23:16:33.275Z,4.15
2022-11-17T23:19:00.432Z,2.60
2022-11-17T23:21:27.587Z,4.75
2022-11-17T23:23:54.843Z,3.40
2022-11-17T23:26:22.493Z,3.75
2022-11-17T23:28:49.574Z,2.88
2022-11-17T23:31:16.736Z,3.75
2022-11-17T23:33:45.461Z,3.30
2022-11-17T23:36:12.937Z,4.07
2022-11-17T23:38:40.042Z,2.78
2022-11-17T23:41:07.167Z,2.83
2022-11-17T23:43:34.280Z,2.83
2022-11-17T23:46:01.358Z,3.55
2022-11-17T23:48:28.450Z,3.17
2022-11-17T23:50:55.532Z,2.85
2022-11-17T23:53:22.607Z,4.28
2022-11-17T23:55:49.747Z,3.17
2022-11-17T23:58:16.929Z,3.05
